Time;durP1;ratioP1;P1;durP2;ratioP2;P2;SDS_P1;SDS_P2;PMS_P1;PMS_P2;Temp;Humidity;BMP_temperature;BMP_pressure;BME280_temperature;BME280_humidity;BME280_pressure;Samples;Min_cycle;Max_cycle;Signal;HPM_P1;HPM_P2
2021/07/10 00:00:18;;;;;;;5.28;3.15;;;;;;;16.94;48.14;101547.44;7849880;29;20038;-70
2021/07/10 00:04:09;;;;;;;5.65;3.58;;;;;;;16.88;48.39;101540.78;7849476;29;20027;-71
2021/07/10 00:08:00;;;;;;;5.22;3.28;;;;;;;16.82;48.14;101530.69;7849771;28;20549;-71
2021/07/10 00:11:50;;;;;;;4.00;2.97;;;;;;;16.77;48.16;101530.19;7849967;28;20110;-71
2021/07/10 00:15:41;;;;;;;4.70;2.90;;;;;;;16.73;48.12;101519.97;7850947;28;20030;-71
2021/07/10 00:19:32;;;;;;;3.80;3.00;;;;;;;16.66;48.29;101519.59;7855452;29;20031;-71
2021/07/10 00:23:23;;;;;;;4.63;2.70;;;;;;;16.62;48.43;101507.56;7855198;29;20031;-71
2021/07/10 00:27:14;;;;;;;8.85;2.80;;;;;;;16.58;48.24;101511.44;7853902;28;20031;-71
2021/07/10 00:31:05;;;;;;;3.97;2.90;;;;;;;16.52;48.55;101511.94;7854958;29;20049;-71
2021/07/10 00:34:55;;;;;;;4.07;2.92;;;;;;;16.37;48.43;101497.28;7837453;29;20034;-71
2021/07/10 00:38:46;;;;;;;4.15;2.67;;;;;;;16.42;48.51;101511.84;7854506;28;20046;-71
2021/07/10 00:42:38;;;;;;;5.57;3.60;;;;;;;16.39;48.44;101506.78;7837195;29;20499;-71
2021/07/10 00:46:29;;;;;;;3.60;2.90;;;;;;;16.35;48.59;101504.50;7854090;28;20526;-71
2021/07/10 00:50:22;;;;;;;6.03;3.45;;;;;;;16.30;48.67;101496.06;7854625;29;20035;-71
2021/07/10 00:54:13;;;;;;;6.38;3.65;;;;;;;16.24;48.64;101488.63;7852799;29;20126;-71
2021/07/10 00:58:03;;;;;;;3.25;2.60;;;;;;;16.19;48.78;101494.28;7854088;28;20081;-71
2021/07/10 01:01:54;;;;;;;4.38;2.92;;;;;;;16.05;48.75;101476.78;7854265;29;20037;-71
2021/07/10 01:05:45;;;;;;;3.10;2.58;;;;;;;16.09;48.30;101499.44;7854058;28;20063;-72
2021/07/10 01:09:36;;;;;;;3.15;2.83;;;;;;;16.05;48.87;101497.16;7853542;29;20039;-71
2021/07/10 01:13:26;;;;;;;3.03;2.72;;;;;;;16.00;48.86;101492.22;7853545;29;20407;-71
2021/07/10 01:17:17;;;;;;;6.47;3.38;;;;;;;15.95;48.91;101489.09;7853409;28;20054;-71
2021/07/10 01:21:08;;;;;;;3.80;2.88;;;;;;;15.89;48.86;101478.97;7853350;28;20031;-70
2021/07/10 01:24:58;;;;;;;5.47;2.75;;;;;;;15.86;49.04;101486.31;7851842;29;20031;-71
2021/07/10 01:28:49;;;;;;;4.25;3.38;;;;;;;15.82;49.08;101480.44;7852938;28;20031;-72
2021/07/10 01:32:41;;;;;;;3.50;2.80;;;;;;;15.79;49.15;101482.47;7852877;28;20031;-71
2021/07/10 01:36:33;;;;;;;5.05;3.45;;;;;;;15.73;49.22;101483.78;7851318;28;20031;-71
2021/07/10 01:40:25;;;;;;;4.57;3.78;;;;;;;15.70;49.21;101471.66;7852902;29;20035;-71
2021/07/10 01:44:15;;;;;;;4.80;3.30;;;;;;;15.67;49.34;101466.56;7852340;29;20419;-71
2021/07/10 01:48:10;;;;;;;8.95;3.80;;;;;;;15.65;49.44;101455.25;7852518;28;20030;-71
2021/07/10 01:52:00;;;;;;;6.35;3.80;;;;;;;15.61;49.51;101458.28;7852476;29;20028;-71
2021/07/10 01:55:51;;;;;;;6.93;4.00;;;;;;;15.58;49.57;101451.38;7852492;28;20045;-71
2021/07/10 01:59:41;;;;;;;9.35;4.25;;;;;;;15.55;49.58;101446.34;7852611;29;20027;-72
2021/07/10 02:03:32;;;;;;;5.57;3.55;;;;;;;15.53;49.70;101450.09;7851593;28;20035;-70
2021/07/10 02:07:22;;;;;;;11.27;3.35;;;;;;;15.44;49.73;101437.56;7849639;28;20028;-71
2021/07/10 02:11:13;;;;;;;9.25;3.88;;;;;;;15.38;49.78;101438.84;7852321;29;20043;-71
2021/07/10 02:15:06;;;;;;;4.15;3.05;;;;;;;15.43;49.82;101446.44;7852047;28;20035;-71
2021/07/10 02:18:58;;;;;;;6.57;3.58;;;;;;;15.37;49.83;101431.91;7852131;28;20031;-70
2021/07/10 02:22:50;;;;;;;5.90;3.75;;;;;;;15.32;49.98;101434.06;7852005;29;20301;-70
2021/07/10 02:26:41;;;;;;;6.05;3.70;;;;;;;15.33;50.01;101434.91;7851646;28;20541;-71
2021/07/10 02:30:34;;;;;;;6.50;3.53;;;;;;;15.27;50.09;101431.72;7851690;28;20031;-71
2021/07/10 02:34:24;;;;;;;11.02;4.45;;;;;;;15.25;50.11;101425.69;7851324;28;20407;-71
2021/07/10 02:38:15;;;;;;;7.68;4.03;;;;;;;15.19;50.04;101417.41;7850626;28;20514;-70
2021/07/10 02:42:05;;;;;;;8.63;3.58;;;;;;;15.19;50.22;101427.97;7851129;29;20041;-70
2021/07/10 02:45:57;;;;;;;8.13;4.15;;;;;;;15.16;50.28;101415.84;7851019;28;20728;-71
2021/07/10 02:49:48;;;;;;;6.43;3.70;;;;;;;15.13;50.44;101410.75;7851562;29;20117;-71
2021/07/10 02:53:39;;;;;;;6.43;3.88;;;;;;;15.08;50.36;101404.16;7850804;29;20082;-71
2021/07/10 02:57:29;;;;;;;8.02;4.47;;;;;;;15.07;50.58;101413.88;7851188;28;20122;-71
2021/07/10 03:01:20;;;;;;;10.00;4.10;;;;;;;15.04;50.46;101411.44;7849421;29;20714;-71
2021/07/10 03:05:12;;;;;;;7.38;4.18;;;;;;;15.02;50.54;101409.91;7850782;29;20047;-71
2021/07/10 03:09:02;;;;;;;8.82;4.53;;;;;;;14.96;50.78;101391.88;7850784;28;20023;-71
2021/07/10 03:12:55;;;;;;;5.90;3.75;;;;;;;14.96;50.71;101397.97;7850706;28;20098;-71
2021/07/10 03:16:45;;;;;;;7.70;4.35;;;;;;;14.94;50.89;101391.97;7850790;28;20057;-71
2021/07/10 03:20:36;;;;;;;6.85;3.67;;;;;;;14.92;50.84;101391.22;7850617;29;20039;-71
2021/07/10 03:24:27;;;;;;;6.57;3.92;;;;;;;14.88;50.81;101383.66;7850433;29;20023;-71
2021/07/10 03:28:18;;;;;;;5.85;4.15;;;;;;;14.90;50.97;101390.53;7850313;28;20039;-71
2021/07/10 03:32:09;;;;;;;9.38;3.95;;;;;;;14.83;50.98;101384.00;7849266;29;20054;-71
2021/07/10 03:36:00;;;;;;;6.55;3.60;;;;;;;14.85;51.15;101386.53;7851006;28;20494;-70
2021/07/10 03:39:51;;;;;;;7.78;4.05;;;;;;;14.80;51.07;101378.94;7850935;28;20547;-70
2021/07/10 03:43:41;;;;;;;6.00;3.72;;;;;;;14.80;51.00;101390.38;7850307;29;20059;-71
2021/07/10 03:47:32;;;;;;;11.50;3.92;;;;;;;14.79;51.20;101383.38;7849332;28;20678;-71
2021/07/10 03:51:24;;;;;;;6.00;3.78;;;;;;;14.75;51.25;101379.28;7853988;28;20039;-71
2021/07/10 03:55:16;;;;;;;6.72;3.88;;;;;;;14.77;51.27;101385.31;7855283;29;20113;-71
2021/07/10 03:59:07;;;;;;;8.68;3.95;;;;;;;14.76;51.47;101373.03;7855601;28;20040;-70
2021/07/10 04:02:58;;;;;;;5.70;3.55;;;;;;;14.78;51.37;101373.78;7855742;28;20449;-71
2021/07/10 04:06:49;;;;;;;8.30;3.90;;;;;;;14.82;51.53;101371.75;7855546;28;20487;-70
2021/07/10 04:10:39;;;;;;;6.93;3.35;;;;;;;14.85;51.83;101371.50;7855376;28;20027;-71
2021/07/10 04:14:31;;;;;;;5.88;3.65;;;;;;;14.90;51.64;101369.34;7854644;28;20061;-71
2021/07/10 04:18:22;;;;;;;9.52;4.35;;;;;;;14.99;51.99;101373.09;7855116;28;20105;-71
2021/07/10 04:22:12;;;;;;;6.65;3.72;;;;;;;15.05;52.21;101368.16;7855454;29;20392;-71
2021/07/10 04:26:03;;;;;;;6.38;4.03;;;;;;;15.13;52.19;101370.22;7854869;28;20033;-71
2021/07/10 04:29:54;;;;;;;12.95;4.50;;;;;;;15.20;52.27;101367.00;7854889;29;20438;-70
2021/07/10 04:33:44;;;;;;;8.15;3.55;;;;;;;15.29;52.34;101368.13;7854500;29;20027;-71
2021/07/10 04:37:35;;;;;;;8.63;4.53;;;;;;;15.38;52.49;101370.03;7854489;28;20121;-71
2021/07/10 04:41:26;;;;;;;10.75;4.18;;;;;;;15.47;52.57;101365.81;7854649;28;20037;-71
2021/07/10 04:45:16;;;;;;;6.25;3.78;;;;;;;15.53;52.72;101368.00;7854332;28;20042;-70
2021/07/10 04:49:07;;;;;;;12.65;4.50;;;;;;;15.57;52.93;101372.94;7854737;28;20030;-70
2021/07/10 04:52:57;;;;;;;7.63;3.03;;;;;;;15.60;53.01;101379.78;7854198;28;20500;-70
2021/07/10 04:56:48;;;;;;;6.13;3.72;;;;;;;15.64;53.12;101375.94;7846929;28;20434;-71
2021/07/10 05:00:39;;;;;;;4.28;3.28;;;;;;;15.69;53.24;101381.69;7853344;28;20023;-70
2021/07/10 05:04:30;;;;;;;6.25;3.30;;;;;;;15.72;53.35;101382.28;7853350;28;20124;-71
2021/07/10 05:08:20;;;;;;;5.80;3.47;;;;;;;15.77;53.41;101381.94;7853638;28;20039;-71
2021/07/10 05:12:11;;;;;;;6.28;3.67;;;;;;;15.81;53.31;101386.03;7852524;29;20039;-71
2021/07/10 05:16:02;;;;;;;9.75;3.55;;;;;;;15.86;53.47;101393.59;7853383;28;20039;-71
2021/07/10 05:19:52;;;;;;;5.68;3.83;;;;;;;15.90;53.55;101395.03;7853588;28;20399;-71
2021/07/10 05:23:43;;;;;;;8.32;3.40;;;;;;;15.93;53.57;101382.38;7853032;29;20031;-71
2021/07/10 05:27:35;;;;;;;6.13;3.67;;;;;;;15.97;53.60;101382.97;7852254;28;20034;-71
2021/07/10 05:31:26;;;;;;;7.68;3.85;;;;;;;15.98;53.66;101385.50;7853384;29;20043;-71
2021/07/10 05:35:18;;;;;;;8.27;3.47;;;;;;;16.05;53.83;101388.50;7852773;29;20039;-71
2021/07/10 05:39:09;;;;;;;9.52;3.80;;;;;;;16.09;53.96;101385.47;7853469;28;20549;-71
2021/07/10 05:43:00;;;;;;;6.63;3.30;;;;;;;16.14;53.75;101385.97;7853185;28;20031;-71
2021/07/10 05:46:51;;;;;;;7.90;3.97;;;;;;;16.23;54.31;101379.09;7852712;28;20038;-71
2021/07/10 05:50:41;;;;;;;5.65;3.33;;;;;;;16.35;54.17;101380.72;7853372;29;20035;-72
2021/07/10 05:54:33;;;;;;;7.10;3.55;;;;;;;16.47;54.24;101386.81;7853373;29;20046;-71
2021/07/10 05:58:23;;;;;;;5.70;3.97;;;;;;;16.60;54.20;101383.03;7853591;28;20114;-71
2021/07/10 06:02:14;;;;;;;7.20;3.63;;;;;;;16.76;54.46;101373.78;7853589;29;20110;-71
2021/07/10 06:06:04;;;;;;;8.32;3.63;;;;;;;16.91;54.23;101364.50;7851787;28;20035;-71
2021/07/10 06:09:55;;;;;;;8.25;3.35;;;;;;;17.10;54.27;101367.34;7853455;28;20027;-71
2021/07/10 06:13:45;;;;;;;5.90;3.40;;;;;;;17.34;54.29;101370.53;7851689;28;20039;-72
2021/07/10 06:17:38;;;;;;;4.53;3.35;;;;;;;17.59;54.08;101363.06;7853037;28;20118;-72
2021/07/10 06:21:28;;;;;;;8.63;4.32;;;;;;;17.85;53.98;101367.81;7853377;29;20031;-72
2021/07/10 06:25:20;;;;;;;8.43;3.55;;;;;;;18.09;53.98;101358.59;7852317;29;20041;-70
2021/07/10 06:29:11;;;;;;;4.63;3.78;;;;;;;18.29;53.57;101361.13;7851766;28;20034;-71
2021/07/10 06:33:02;;;;;;;5.15;3.05;;;;;;;18.53;53.95;101360.72;7851441;29;20031;-72
2021/07/10 06:36:53;;;;;;;6.43;3.35;;;;;;;19.05;53.79;101356.72;7851480;28;20043;-72
2021/07/10 06:40:44;;;;;;;7.43;3.63;;;;;;;19.62;53.20;101352.19;7850179;29;20438;-72
2021/07/10 06:44:34;;;;;;;8.93;3.65;;;;;;;20.15;52.97;101350.44;7850545;29;20621;-72
2021/07/10 06:48:25;;;;;;;5.95;3.88;;;;;;;20.57;52.38;101349.84;7845311;28;20039;-72
2021/07/10 06:52:16;;;;;;;10.10;3.63;;;;;;;21.04;52.13;101355.69;7851500;28;20031;-72
2021/07/10 06:56:07;;;;;;;4.63;3.28;;;;;;;21.55;51.89;101344.09;7855511;28;20039;-72
2021/07/10 06:59:57;;;;;;;5.40;3.38;;;;;;;21.93;51.33;101343.59;7843486;28;20038;-72
2021/07/10 07:03:48;;;;;;;6.38;3.28;;;;;;;22.43;50.71;101343.47;7848742;28;20035;-72
2021/07/10 07:07:39;;;;;;;4.97;2.95;;;;;;;23.07;50.23;101338.25;7849287;28;20139;-71
2021/07/10 07:11:30;;;;;;;4.78;3.13;;;;;;;23.70;49.63;101333.66;7850919;29;20047;-72
2021/07/10 07:15:20;;;;;;;5.05;3.67;;;;;;;24.48;48.99;101344.25;7849253;28;20035;-72
2021/07/10 07:19:11;;;;;;;7.18;3.10;;;;;;;25.30;47.74;101338.88;7846587;28;20046;-72
2021/07/10 07:23:02;;;;;;;5.93;3.95;;;;;;;26.20;46.80;101340.19;7847410;28;20035;-72
2021/07/10 07:26:53;;;;;;;4.22;2.90;;;;;;;26.96;45.84;101328.59;7850857;28;20035;-72
2021/07/10 07:30:43;;;;;;;6.70;3.10;;;;;;;27.30;44.90;101327.75;7846215;28;20037;-72
2021/07/10 07:34:34;;;;;;;4.00;2.50;;;;;;;27.54;44.32;101320.19;7853027;29;20027;-72
2021/07/10 07:38:26;;;;;;;3.80;2.80;;;;;;;28.10;43.26;101323.47;7852986;28;20031;-72
2021/07/10 07:42:18;;;;;;;7.97;2.72;;;;;;;28.55;42.33;101329.94;7851959;28;20134;-72
2021/07/10 07:46:08;;;;;;;3.95;2.53;;;;;;;28.87;41.72;101326.44;7855005;28;20105;-72
2021/07/10 07:49:59;;;;;;;3.95;3.05;;;;;;;28.80;41.52;101322.88;7856362;29;20049;-69
2021/07/10 07:53:50;;;;;;;3.13;2.45;;;;;;;28.54;41.06;101325.59;7856389;28;20034;-70
2021/07/10 07:57:41;;;;;;;3.85;2.55;;;;;;;28.25;41.03;101318.75;7854146;28;20031;-72
2021/07/10 08:01:32;;;;;;;4.03;2.60;;;;;;;28.00;41.13;101325.75;7854327;29;20038;-69
2021/07/10 08:05:23;;;;;;;4.03;2.28;;;;;;;27.79;40.96;101324.03;7856928;28;20027;-72
2021/07/10 08:09:13;;;;;;;3.30;2.45;;;;;;;27.68;40.62;101311.97;7855704;28;20054;-72
2021/07/10 08:13:04;;;;;;;4.20;2.80;;;;;;;27.64;40.77;101310.69;7855211;28;20035;-72
2021/07/10 08:16:55;;;;;;;9.85;2.75;;;;;;;27.61;40.50;101308.41;7854375;28;20503;-72
2021/07/10 08:20:45;;;;;;;4.18;2.65;;;;;;;27.54;39.96;101295.91;7854018;28;20495;-72
2021/07/10 08:24:36;;;;;;;5.22;2.78;;;;;;;27.62;39.74;101298.47;7854180;29;20043;-72
2021/07/10 08:28:42;;;;;;;10.05;2.70;;;;;;;27.74;39.42;101296.81;7853444;28;20027;-73
2021/07/10 08:32:33;;;;;;;4.75;2.85;;;;;;;27.78;38.79;101290.81;7854203;29;20027;-72
2021/07/10 08:36:23;;;;;;;4.20;2.70;;;;;;;27.61;39.41;101286.81;7853325;28;20028;-70
2021/07/10 08:40:16;;;;;;;3.55;2.60;;;;;;;27.40;39.27;101287.78;7852679;29;20554;-73
2021/07/10 08:44:06;;;;;;;3.25;2.28;;;;;;;27.15;38.93;101283.09;7852375;29;20027;-73
2021/07/10 08:47:57;;;;;;;6.38;2.72;;;;;;;26.95;39.13;101280.28;7852930;28;20031;-70
2021/07/10 08:51:48;;;;;;;4.78;2.70;;;;;;;26.86;39.06;101276.06;7854124;29;20427;-72
2021/07/10 08:55:39;;;;;;;3.97;2.88;;;;;;;26.67;39.24;101276.78;7853558;28;20106;-72
2021/07/10 08:59:30;;;;;;;3.90;2.40;;;;;;;26.46;39.44;101281.16;7852236;29;20039;-72
2021/07/10 09:03:21;;;;;;;4.78;2.80;;;;;;;26.31;40.03;101274.22;7853518;28;20045;-72
2021/07/10 09:07:11;;;;;;;6.03;2.97;;;;;;;26.15;39.69;101272.63;7853369;28;20038;-72
2021/07/10 09:11:14;;;;;;;4.25;3.00;;;;;;;25.93;40.07;101274.47;7853238;29;20538;-72
2021/07/10 09:15:19;;;;;;;4.65;2.80;;;;;;;25.74;40.18;101275.09;7849775;29;20035;-72
2021/07/10 09:19:10;;;;;;;4.13;2.67;;;;;;;25.52;39.95;101274.22;7850688;28;20050;-72
2021/07/10 09:23:01;;;;;;;3.10;2.30;;;;;;;25.31;40.40;101263.41;7852906;29;20024;-72
2021/07/10 09:26:54;;;;;;;4.75;2.47;;;;;;;25.16;40.34;101268.81;7852660;28;20655;-72
2021/07/10 09:30:44;;;;;;;8.05;3.65;;;;;;;25.03;40.22;101268.63;7851126;29;20031;-72
2021/07/10 09:34:45;;;;;;;3.55;2.75;;;;;;;24.93;40.30;101267.25;7852691;28;20042;-72
2021/07/10 09:38:35;;;;;;;4.88;2.40;;;;;;;24.86;40.47;101261.72;7852482;28;20093;-72
2021/07/10 09:42:35;;;;;;;3.78;2.58;;;;;;;24.78;40.35;101262.66;7852809;29;20031;-72
2021/07/10 09:46:27;;;;;;;5.30;2.97;;;;;;;24.71;40.75;101261.75;7849846;28;20097;-73
2021/07/10 09:50:20;;;;;;;7.18;2.60;;;;;;;24.66;40.49;101255.25;7850494;28;20041;-72
2021/07/10 09:54:11;;;;;;;4.55;3.05;;;;;;;24.58;40.95;101256.19;7850200;29;20672;-72
2021/07/10 09:58:03;;;;;;;4.35;2.80;;;;;;;24.51;40.63;101249.03;7849545;28;20452;-72
2021/07/10 10:01:55;;;;;;;3.13;2.50;;;;;;;24.47;40.91;101253.94;7852410;29;20555;-72
2021/07/10 10:05:45;;;;;;;6.53;2.63;;;;;;;24.41;41.21;101251.16;7851820;28;20043;-72
2021/07/10 10:09:36;;;;;;;4.28;2.72;;;;;;;24.37;41.23;101250.69;7848697;28;20668;-72
2021/07/10 10:13:27;;;;;;;4.07;2.50;;;;;;;24.30;40.91;101239.00;7851113;28;20743;-72
2021/07/10 10:17:21;;;;;;;8.00;2.90;;;;;;;24.18;40.35;101230.53;7851707;28;20395;-72
2021/07/10 10:21:12;;;;;;;5.03;2.78;;;;;;;24.15;40.75;101244.31;7851200;28;20039;-72
2021/07/10 10:25:03;;;;;;;5.80;2.75;;;;;;;24.10;40.80;101237.81;7850766;29;20035;-72
2021/07/10 10:28:55;;;;;;;6.53;2.88;;;;;;;24.02;40.94;101219.09;7851099;28;20041;-72
2021/07/10 10:32:47;;;;;;;5.97;2.95;;;;;;;24.08;40.97;101224.56;7848910;29;20027;-72
2021/07/10 10:36:40;;;;;;;5.90;3.20;;;;;;;24.11;41.13;101223.41;7849398;28;20035;-72
2021/07/10 10:40:32;;;;;;;5.65;3.15;;;;;;;24.14;41.32;101223.03;7850598;29;20089;-72
2021/07/10 10:44:26;;;;;;;8.27;3.03;;;;;;;24.17;40.96;101222.66;7850494;29;20093;-72
2021/07/10 10:48:34;;;;;;;8.90;3.03;;;;;;;24.20;40.67;101215.06;7850819;28;20050;-72
2021/07/10 10:52:33;;;;;;;5.22;3.13;;;;;;;24.26;41.19;101208.16;7850675;29;20034;-72
2021/07/10 10:56:35;;;;;;;3.00;2.50;;;;;;;24.28;40.74;101206.09;7848713;28;20566;-73
2021/07/10 11:00:39;;;;;;;7.90;3.35;;;;;;;24.26;41.22;101200.94;7849978;28;20089;-73
2021/07/10 11:04:45;;;;;;;5.32;2.42;;;;;;;24.26;41.25;101200.09;7848908;29;20027;-72
2021/07/10 11:08:38;;;;;;;2.92;2.40;;;;;;;24.29;41.05;101191.69;7850067;28;20835;-73
2021/07/10 11:12:49;;;;;;;3.78;2.40;;;;;;;24.32;41.40;101194.84;7850109;29;20038;-73
2021/07/10 11:17:07;;;;;;;6.35;2.47;;;;;;;24.34;41.13;101202.72;7849666;28;20544;-73
2021/07/10 11:20:57;;;;;;;;;;;;;;;24.18;41.72;101184.91;7847907;29;20090;-73
2021/07/10 11:24:48;;;;;;;3.45;2.35;;;;;;;24.36;40.68;101183.75;7850278;29;19914;-72
2021/07/10 11:28:50;;;;;;;4.07;2.50;;;;;;;24.40;40.74;101171.63;7850204;28;20090;-73
2021/07/10 11:32:44;;;;;;;6.82;2.28;;;;;;;24.39;40.60;101167.28;7849294;29;20841;-73
2021/07/10 11:36:38;;;;;;;4.82;2.78;;;;;;;24.39;40.97;101167.28;7849845;28;20035;-73
2021/07/10 11:40:37;;;;;;;3.97;2.47;;;;;;;24.40;40.83;101156.38;7849900;28;20035;-72
2021/07/10 11:44:29;;;;;;;4.05;2.30;;;;;;;24.43;40.89;101147.09;7848959;29;20558;-72
2021/07/10 11:48:23;;;;;;;3.08;2.30;;;;;;;24.44;40.81;101140.72;7849534;28;21276;-73
2021/07/10 11:52:16;;;;;;;3.38;2.03;;;;;;;24.47;40.37;101146.53;7846004;29;20148;-73
2021/07/10 11:56:07;;;;;;;4.43;2.10;;;;;;;24.50;40.76;101150.69;7849298;28;20042;-73
2021/07/10 11:59:58;;;;;;;3.22;2.40;;;;;;;24.47;40.57;101143.84;7849460;29;20460;-72
2021/07/10 12:03:48;;;;;;;3.17;2.40;;;;;;;24.46;40.50;101134.13;7848958;28;20035;-73
2021/07/10 12:07:46;;;;;;;5.13;2.50;;;;;;;24.44;40.05;101136.19;7844977;28;20027;-73
2021/07/10 12:11:37;;;;;;;3.47;2.65;;;;;;;24.39;40.29;101130.53;7851145;28;20038;-73
2021/07/10 12:15:30;;;;;;;3.53;2.67;;;;;;;24.36;40.19;101130.91;7849400;28;20042;-73
2021/07/10 12:19:23;;;;;;;5.18;2.50;;;;;;;24.26;40.20;101123.09;7854388;28;20045;-73
2021/07/10 12:23:21;;;;;;;2.75;1.90;;;;;;;24.16;39.72;101127.88;7854821;29;20066;-73
2021/07/10 12:27:15;;;;;;;3.85;2.10;;;;;;;24.03;39.97;101119.63;7854827;28;20109;-72
2021/07/10 12:31:20;;;;;;;3.22;2.20;;;;;;;23.91;40.20;101114.91;7854636;29;20023;-72
2021/07/10 12:35:14;;;;;;;3.03;2.35;;;;;;;23.80;40.54;101113.50;7854837;29;20031;-72
2021/07/10 12:39:17;;;;;;;3.78;2.17;;;;;;;23.70;40.42;101115.63;7854719;28;20031;-73
2021/07/10 12:43:08;;;;;;;4.65;2.83;;;;;;;23.59;40.27;101114.16;7854656;28;20027;-73
2021/07/10 12:47:15;;;;;;;15.60;3.10;;;;;;;23.52;40.57;101109.69;7854102;28;20031;-72
2021/07/10 12:51:06;;;;;;;3.92;2.33;;;;;;;23.52;40.20;101110.53;7854613;28;20035;-72
2021/07/10 12:55:10;;;;;;;4.68;2.40;;;;;;;23.54;40.75;101108.47;7868810;28;20035;-73
2021/07/10 12:59:01;;;;;;;3.28;2.30;;;;;;;23.60;40.26;101112.31;7853711;28;20033;-73
2021/07/10 13:03:07;;;;;;;8.60;2.92;;;;;;;23.60;40.22;101101.56;7847669;29;20038;-72
2021/07/10 13:06:59;;;;;;;4.55;2.40;;;;;;;23.69;40.45;101105.88;7862625;28;20034;-72
2021/07/10 13:11:03;;;;;;;3.92;2.60;;;;;;;23.78;40.36;101099.44;7854001;28;20550;-73
2021/07/10 13:15:03;;;;;;;3.42;2.30;;;;;;;23.84;40.49;101096.84;7851613;29;20082;-72
2021/07/10 13:18:59;;;;;;;8.75;3.17;;;;;;;23.94;39.82;101093.91;7853354;28;20031;-74
2021/07/10 13:22:50;;;;;;;6.05;2.90;;;;;;;24.01;40.44;101084.09;7854023;28;20031;-72
2021/07/10 13:26:51;;;;;;;5.30;2.17;;;;;;;24.10;39.88;101076.81;7854471;28;20042;-71
2021/07/10 13:30:42;;;;;;;2.95;2.28;;;;;;;24.19;40.42;101075.69;7854391;28;20031;-73
2021/07/10 13:34:35;;;;;;;4.30;2.88;;;;;;;24.25;40.09;101074.94;7853659;28;20379;-72
2021/07/10 13:38:26;;;;;;;3.75;2.35;;;;;;;24.25;39.84;101069.56;7853348;28;20483;-72
2021/07/10 13:42:21;;;;;;;3.20;2.03;;;;;;;24.26;39.95;101058.66;7852919;28;20487;-73
2021/07/10 13:46:12;;;;;;;5.57;2.45;;;;;;;24.26;39.56;101063.19;7852697;28;20035;-71
2021/07/10 13:50:06;;;;;;;13.60;2.63;;;;;;;24.17;39.42;101061.63;7852624;29;20045;-73
2021/07/10 13:53:57;;;;;;;2.47;2.20;;;;;;;24.18;39.42;101068.66;7846626;29;20043;-73
2021/07/10 13:57:48;;;;;;;4.85;2.85;;;;;;;24.18;39.42;101068.66;7852216;28;20101;-72
2021/07/10 14:01:39;;;;;;;6.07;2.45;;;;;;;24.18;39.27;101063.28;7852254;28;20031;-73
2021/07/10 14:05:35;;;;;;;3.28;2.45;;;;;;;24.18;38.88;101053.38;7852068;29;20042;-73
2021/07/10 14:09:25;;;;;;;6.18;2.20;;;;;;;24.19;38.96;101047.00;7850891;28;20043;-72
2021/07/10 14:13:23;;;;;;;2.25;2.00;;;;;;;24.23;39.27;101044.78;7851430;29;20094;-72
2021/07/10 14:17:14;;;;;;;2.90;2.13;;;;;;;24.25;39.10;101046.25;7850449;28;20677;-72
2021/07/10 14:21:05;;;;;;;3.25;2.22;;;;;;;24.26;38.68;101041.72;7866419;28;20097;-72
2021/07/10 14:24:55;;;;;;;3.47;2.42;;;;;;;24.19;38.98;101027.38;7862986;28;20039;-72
2021/07/10 14:28:46;;;;;;;3.50;2.25;;;;;;;24.26;39.02;101026.44;7851161;28;20089;-72
2021/07/10 14:32:37;;;;;;;7.30;2.50;;;;;;;24.31;39.04;101034.81;7848735;28;20094;-73
2021/07/10 14:36:28;;;;;;;3.75;2.28;;;;;;;24.32;39.43;101028.41;7849398;28;20042;-72
2021/07/10 14:40:21;;;;;;;2.58;2.22;;;;;;;24.33;38.50;101027.38;7851567;28;20399;-72
2021/07/10 14:44:12;;;;;;;2.75;2.20;;;;;;;24.31;38.50;101025.91;7848686;28;20039;-72
2021/07/10 14:48:03;;;;;;;6.32;2.15;;;;;;;24.24;38.24;101020.41;7846688;28;20039;-73
2021/07/10 14:51:53;;;;;;;3.80;2.20;;;;;;;24.18;38.58;101018.50;7850779;28;20061;-73
2021/07/10 14:55:44;;;;;;;2.38;2.00;;;;;;;24.17;38.73;101013.31;7850569;28;20039;-73
2021/07/10 14:59:35;;;;;;;3.65;2.10;;;;;;;24.09;38.66;101000.81;7849823;28;20053;-72
2021/07/10 15:03:26;;;;;;;2.85;1.90;;;;;;;24.11;38.37;101003.34;7850827;29;20106;-73
2021/07/10 15:07:16;;;;;;;3.08;2.22;;;;;;;24.10;38.73;101013.22;7850851;28;20042;-72
2021/07/10 15:11:08;;;;;;;4.05;2.08;;;;;;;24.06;38.10;101003.88;7865404;28;20066;-72
2021/07/10 15:15:02;;;;;;;5.00;2.33;;;;;;;24.00;37.95;101003.78;7850207;29;20039;-72
2021/07/10 15:18:53;;;;;;;20.63;2.60;;;;;;;23.87;38.39;100993.69;7850766;28;20063;-73
2021/07/10 15:22:44;;;;;;;3.17;2.03;;;;;;;23.81;38.88;101000.66;7851090;29;20019;-72
2021/07/10 15:26:36;;;;;;;4.35;2.10;;;;;;;23.68;38.59;100988.88;7849262;28;20780;-72
2021/07/10 15:30:27;;;;;;;3.53;1.58;;;;;;;23.63;38.72;100996.63;7850193;29;20403;-72
2021/07/10 15:34:18;;;;;;;3.40;1.70;;;;;;;23.49;39.25;100982.22;7850201;28;20035;-72
2021/07/10 15:38:09;;;;;;;2.30;1.80;;;;;;;23.45;39.92;100997.78;7849061;28;20039;-72
2021/07/10 15:41:59;;;;;;;2.08;1.88;;;;;;;23.37;39.31;100983.63;7865327;28;20558;-72
2021/07/10 15:45:50;;;;;;;8.55;2.42;;;;;;;23.28;39.98;100984.75;7851443;28;20038;-73
2021/07/10 15:49:41;;;;;;;2.20;1.95;;;;;;;23.20;40.58;100982.16;7856345;29;20134;-72
2021/07/10 15:53:33;;;;;;;2.80;2.13;;;;;;;23.12;40.70;100982.22;7856081;29;20067;-72
2021/07/10 15:57:23;;;;;;;2.30;1.73;;;;;;;23.07;40.75;100979.22;7855792;28;20079;-72
2021/07/10 16:01:14;;;;;;;4.88;2.28;;;;;;;22.94;40.65;100974.47;7854959;28;20038;-73
2021/07/10 16:05:07;;;;;;;3.20;1.90;;;;;;;22.93;40.80;100980.81;7855207;28;20042;-74
2021/07/10 16:08:58;;;;;;;4.18;2.08;;;;;;;22.77;40.69;100960.34;7855133;28;20026;-74
2021/07/10 16:12:49;;;;;;;2.30;1.70;;;;;;;22.80;41.17;100968.03;7855402;28;20517;-73
2021/07/10 16:16:39;;;;;;;3.03;2.05;;;;;;;22.75;41.40;100969.56;7855227;28;20093;-73
2021/07/10 16:20:30;;;;;;;7.53;1.98;;;;;;;22.66;41.79;100957.25;7855833;29;20061;-74
2021/07/10 16:24:21;;;;;;;3.97;2.10;;;;;;;22.62;41.63;100951.44;7854541;29;20035;-73
2021/07/10 16:28:11;;;;;;;2.13;1.70;;;;;;;22.57;41.94;100944.94;7854776;28;20035;-74
2021/07/10 16:32:03;;;;;;;4.30;2.25;;;;;;;22.52;42.26;100937.44;7854927;28;20145;-72
2021/07/10 16:35:53;;;;;;;2.40;1.90;;;;;;;22.46;42.12;100922.03;7854549;28;20109;-72
2021/07/10 16:39:44;;;;;;;3.33;1.95;;;;;;;22.42;42.33;100924.25;7855183;28;20435;-71
2021/07/10 16:43:35;;;;;;;2.40;1.80;;;;;;;22.37;42.46;100910.56;7853571;29;20054;-73
2021/07/10 16:47:26;;;;;;;4.82;2.15;;;;;;;22.33;42.58;100901.22;7854369;28;20063;-73
2021/07/10 16:51:16;;;;;;;2.95;1.88;;;;;;;22.39;42.45;100910.38;7854166;29;20069;-73
2021/07/10 16:55:10;;;;;;;2.80;1.90;;;;;;;22.39;42.10;100910.38;7854060;29;20812;-73
2021/07/10 16:59:00;;;;;;;3.17;1.75;;;;;;;22.43;41.89;100914.38;7868262;28;20038;-73
2021/07/10 17:02:51;;;;;;;2.30;1.88;;;;;;;22.41;42.40;100916.41;7853785;28;20019;-74
2021/07/10 17:06:46;;;;;;;3.35;1.80;;;;;;;22.36;42.60;100916.94;7853451;28;20031;-73
2021/07/10 17:10:37;;;;;;;5.05;2.53;;;;;;;22.34;42.18;100913.59;7853961;28;20062;-74
2021/07/10 17:14:27;;;;;;;2.55;1.60;;;;;;;22.33;42.03;100922.63;7852063;29;20502;-74
2021/07/10 17:18:19;;;;;;;1.73;1.52;;;;;;;22.32;41.98;100918.31;7853089;28;20027;-73
2021/07/10 17:22:10;;;;;;;9.65;1.70;;;;;;;22.32;42.20;100920.13;7853687;28;20031;-72
2021/07/10 17:26:01;;;;;;;2.17;1.70;;;;;;;22.31;42.22;100918.47;7853249;28;20041;-73
2021/07/10 17:29:52;;;;;;;3.15;1.80;;;;;;;22.30;42.51;100914.97;7853423;28;20467;-73
2021/07/10 17:33:42;;;;;;;3.30;2.28;;;;;;;22.29;42.43;100915.97;7852930;29;20495;-73
2021/07/10 17:37:33;;;;;;;1.90;1.60;;;;;;;22.26;42.60;100908.28;7853321;28;20483;-73
2021/07/10 17:41:25;;;;;;;2.90;1.83;;;;;;;22.24;42.40;100910.31;7853095;29;20057;-73
2021/07/10 17:45:18;;;;;;;1.95;1.70;;;;;;;22.22;42.66;100906.13;7852148;29;20043;-73
2021/07/10 17:49:09;;;;;;;2.95;2.05;;;;;;;22.21;42.59;100902.63;7852688;28;20034;-73
2021/07/10 17:53:00;;;;;;;2.92;2.22;;;;;;;22.20;42.64;100916.19;7852623;28;20039;-73
2021/07/10 17:56:50;;;;;;;3.72;2.10;;;;;;;22.19;43.01;100914.53;7852323;28;20026;-73